sensor_id;sensor_type;location;lat;lon;timestamp;temperature;humidity
39621;DHT22;25309;48.686;9.170;2022-07-22T00:00:43;20.40;99.90
39621;DHT22;25309;48.686;9.170;2022-07-22T00:03:11;20.30;99.90
39621;DHT22;25309;48.686;9.170;2022-07-22T00:05:38;20.30;99.90
39621;DHT22;25309;48.686;9.170;2022-07-22T00:08:05;20.30;99.90
39621;DHT22;25309;48.686;9.170;2022-07-22T00:10:33;20.30;99.90
39621;DHT22;25309;48.686;9.170;2022-07-22T00:13:00;20.20;99.90
39621;DHT22;25309;48.686;9.170;2022-07-22T00:15:27;20.20;99.90
39621;DHT22;25309;48.686;9.170;2022-07-22T00:17:54;20.20;99.90
39621;DHT22;25309;48.686;9.170;2022-07-22T00:20:22;20.20;99.90
39621;DHT22;25309;48.686;9.170;2022-07-22T00:22:49;20.20;99.90
39621;DHT22;25309;48.686;9.170;2022-07-22T00:25:16;20.10;99.90
39621;DHT22;25309;48.686;9.170;2022-07-22T00:27:44;20.10;99.90
39621;DHT22;25309;48.686;9.170;2022-07-22T00:30:12;20.00;99.90
39621;DHT22;25309;48.686;9.170;2022-07-22T00:32:39;20.00;99.90
39621;DHT22;25309;48.686;9.170;2022-07-22T00:35:06;20.00;99.90
39621;DHT22;25309;48.686;9.170;2022-07-22T00:37:34;20.00;99.90
39621;DHT22;25309;48.686;9.170;2022-07-22T00:40:01;20.00;99.90
39621;DHT22;25309;48.686;9.170;2022-07-22T00:42:28;20.00;99.90
39621;DHT22;25309;48.686;9.170;2022-07-22T00:44:57;20.00;99.90
39621;DHT22;25309;48.686;9.170;2022-07-22T00:47:26;20.00;99.90
39621;DHT22;25309;48.686;9.170;2022-07-22T00:49:53;19.90;99.90
39621;DHT22;25309;48.686;9.170;2022-07-22T00:52:22;19.90;99.90
39621;DHT22;25309;48.686;9.170;2022-07-22T00:54:49;19.90;99.90
39621;DHT22;25309;48.686;9.170;2022-07-22T00:57:16;20.00;99.90
39621;DHT22;25309;48.686;9.170;2022-07-22T00:59:44;19.90;99.90
39621;DHT22;25309;48.686;9.170;2022-07-22T01:02:12;19.90;99.90
39621;DHT22;25309;48.686;9.170;2022-07-22T01:04:40;19.90;99.90
39621;DHT22;25309;48.686;9.170;2022-07-22T01:07:07;19.90;99.90
39621;DHT22;25309;48.686;9.170;2022-07-22T01:09:35;20.00;99.90
39621;DHT22;25309;48.686;9.170;2022-07-22T01:12:02;20.00;99.90
39621;DHT22;25309;48.686;9.170;2022-07-22T01:14:30;20.00;99.90
39621;DHT22;25309;48.686;9.170;2022-07-22T01:16:57;19.90;99.90
39621;DHT22;25309;48.686;9.170;2022-07-22T01:19:25;19.90;99.90
39621;DHT22;25309;48.686;9.170;2022-07-22T01:21:54;20.00;99.90
39621;DHT22;25309;48.686;9.170;2022-07-22T01:24:22;19.90;99.90
39621;DHT22;25309;48.686;9.170;2022-07-22T01:26:49;19.90;99.90
39621;DHT22;25309;48.686;9.170;2022-07-22T01:29:16;19.90;99.90
39621;DHT22;25309;48.686;9.170;2022-07-22T01:31:44;19.80;99.90
39621;DHT22;25309;48.686;9.170;2022-07-22T01:34:12;19.80;99.90
39621;DHT22;25309;48.686;9.170;2022-07-22T01:36:39;19.80;99.90
39621;DHT22;25309;48.686;9.170;2022-07-22T01:39:08;19.80;99.90
39621;DHT22;25309;48.686;9.170;2022-07-22T01:41:35;19.80;99.90
39621;DHT22;25309;48.686;9.170;2022-07-22T01:44:02;19.80;99.90
39621;DHT22;25309;48.686;9.170;2022-07-22T01:46:30;19.70;99.90
39621;DHT22;25309;48.686;9.170;2022-07-22T01:48:57;19.70;99.90
39621;DHT22;25309;48.686;9.170;2022-07-22T01:51:28;19.70;99.90
39621;DHT22;25309;48.686;9.170;2022-07-22T01:53:56;19.70;99.90
39621;DHT22;25309;48.686;9.170;2022-07-22T01:56:25;19.60;99.90
39621;DHT22;25309;48.686;9.170;2022-07-22T01:58:52;19.60;99.90
39621;DHT22;25309;48.686;9.170;2022-07-22T02:01:24;19.60;99.90
39621;DHT22;25309;48.686;9.170;2022-07-22T02:03:52;19.60;99.90
39621;DHT22;25309;48.686;9.170;2022-07-22T02:06:20;19.60;99.90
39621;DHT22;25309;48.686;9.170;2022-07-22T02:08:47;19.60;99.90
39621;DHT22;25309;48.686;9.170;2022-07-22T02:11:31;19.60;99.90
39621;DHT22;25309;48.686;9.170;2022-07-22T02:13:59;19.50;99.90
39621;DHT22;25309;48.686;9.170;2022-07-22T02:16:28;19.60;99.90
39621;DHT22;25309;48.686;9.170;2022-07-22T02:18:55;19.60;99.90
39621;DHT22;25309;48.686;9.170;2022-07-22T02:21:23;19.50;99.90
39621;DHT22;25309;48.686;9.170;2022-07-22T02:23:53;19.50;99.90
39621;DHT22;25309;48.686;9.170;2022-07-22T02:26:21;19.50;99.90
39621;DHT22;25309;48.686;9.170;2022-07-22T02:28:49;19.50;99.90
39621;DHT22;25309;48.686;9.170;2022-07-22T02:31:16;19.40;99.90
39621;DHT22;25309;48.686;9.170;2022-07-22T02:33:43;19.40;99.90
39621;DHT22;25309;48.686;9.170;2022-07-22T02:36:11;19.40;99.90
39621;DHT22;25309;48.686;9.170;2022-07-22T02:38:38;19.40;99.90
39621;DHT22;25309;48.686;9.170;2022-07-22T02:41:06;19.30;99.90
39621;DHT22;25309;48.686;9.170;2022-07-22T02:43:36;19.20;99.90
39621;DHT22;25309;48.686;9.170;2022-07-22T02:46:04;19.20;99.90
39621;DHT22;25309;48.686;9.170;2022-07-22T02:48:32;19.20;99.90
39621;DHT22;25309;48.686;9.170;2022-07-22T02:51:00;19.10;99.90
39621;DHT22;25309;48.686;9.170;2022-07-22T02:53:28;19.20;99.90
39621;DHT22;25309;48.686;9.170;2022-07-22T02:55:58;19.10;99.90
39621;DHT22;25309;48.686;9.170;2022-07-22T02:58:26;19.10;99.90
39621;DHT22;25309;48.686;9.170;2022-07-22T03:00:54;19.10;99.90
39621;DHT22;25309;48.686;9.170;2022-07-22T03:03:23;19.10;99.90
39621;DHT22;25309;48.686;9.170;2022-07-22T03:05:51;19.00;99.90
39621;DHT22;25309;48.686;9.170;2022-07-22T03:08:23;19.10;99.90
39621;DHT22;25309;48.686;9.170;2022-07-22T03:10:51;19.10;99.90
39621;DHT22;25309;48.686;9.170;2022-07-22T03:13:19;19.10;99.90
39621;DHT22;25309;48.686;9.170;2022-07-22T03:15:46;19.10;99.90
39621;DHT22;25309;48.686;9.170;2022-07-22T03:18:14;19.10;99.90
39621;DHT22;25309;48.686;9.170;2022-07-22T03:20:43;19.10;99.90
39621;DHT22;25309;48.686;9.170;2022-07-22T03:23:10;19.00;99.90
39621;DHT22;25309;48.686;9.170;2022-07-22T03:25:37;19.00;99.90
39621;DHT22;25309;48.686;9.170;2022-07-22T03:28:05;19.10;99.90
39621;DHT22;25309;48.686;9.170;2022-07-22T03:30:32;19.00;99.90
39621;DHT22;25309;48.686;9.170;2022-07-22T03:32:59;19.00;99.90
39621;DHT22;25309;48.686;9.170;2022-07-22T03:35:30;19.00;99.90
39621;DHT22;25309;48.686;9.170;2022-07-22T03:37:59;19.00;99.90
39621;DHT22;25309;48.686;9.170;2022-07-22T03:40:28;19.00;99.90
39621;DHT22;25309;48.686;9.170;2022-07-22T03:42:56;19.00;99.90
39621;DHT22;25309;48.686;9.170;2022-07-22T03:45:24;18.90;99.90
39621;DHT22;25309;48.686;9.170;2022-07-22T03:47:51;18.90;99.90
39621;DHT22;25309;48.686;9.170;2022-07-22T03:50:22;18.90;99.90
39621;DHT22;25309;48.686;9.170;2022-07-22T03:52:49;18.90;99.90
39621;DHT22;25309;48.686;9.170;2022-07-22T03:55:17;18.90;99.90
39621;DHT22;25309;48.686;9.170;2022-07-22T03:57:48;18.80;99.90
39621;DHT22;25309;48.686;9.170;2022-07-22T04:00:23;18.80;99.90
39621;DHT22;25309;48.686;9.170;2022-07-22T04:02:50;18.70;99.90
39621;DHT22;25309;48.686;9.170;2022-07-22T04:05:24;18.80;99.90
39621;DHT22;25309;48.686;9.170;2022-07-22T04:07:51;18.70;99.90
39621;DHT22;25309;48.686;9.170;2022-07-22T04:10:20;18.80;99.90
39621;DHT22;25309;48.686;9.170;2022-07-22T04:12:47;18.70;99.90
39621;DHT22;25309;48.686;9.170;2022-07-22T04:15:21;18.70;99.90
39621;DHT22;25309;48.686;9.170;2022-07-22T04:17:51;18.70;99.90
39621;DHT22;25309;48.686;9.170;2022-07-22T04:20:18;18.70;99.90
39621;DHT22;25309;48.686;9.170;2022-07-22T04:23:21;18.70;99.90
39621;DHT22;25309;48.686;9.170;2022-07-22T04:25:55;18.70;99.90
39621;DHT22;25309;48.686;9.170;2022-07-22T04:28:22;18.70;99.90
39621;DHT22;25309;48.686;9.170;2022-07-22T04:30:49;18.60;99.90
39621;DHT22;25309;48.686;9.170;2022-07-22T04:33:16;18.70;99.90
39621;DHT22;25309;48.686;9.170;2022-07-22T04:35:43;18.60;99.90
39621;DHT22;25309;48.686;9.170;2022-07-22T04:38:15;18.60;99.90
39621;DHT22;25309;48.686;9.170;2022-07-22T04:40:58;18.60;99.90
39621;DHT22;25309;48.686;9.170;2022-07-22T04:43:25;18.70;99.90
39621;DHT22;25309;48.686;9.170;2022-07-22T04:45:52;18.70;99.90
39621;DHT22;25309;48.686;9.170;2022-07-22T04:48:19;18.70;99.90
39621;DHT22;25309;48.686;9.170;2022-07-22T04:50:48;18.70;99.90
39621;DHT22;25309;48.686;9.170;2022-07-22T04:53:15;18.70;99.90
39621;DHT22;25309;48.686;9.170;2022-07-22T04:55:44;18.70;99.90
39621;DHT22;25309;48.686;9.170;2022-07-22T04:58:12;18.70;99.90
39621;DHT22;25309;48.686;9.170;2022-07-22T05:00:45;18.70;99.90
39621;DHT22;25309;48.686;9.170;2022-07-22T05:03:12;18.80;99.90
39621;DHT22;25309;48.686;9.170;2022-07-22T05:05:40;18.80;99.90
39621;DHT22;25309;48.686;9.170;2022-07-22T05:08:08;18.80;99.90
39621;DHT22;25309;48.686;9.170;2022-07-22T05:10:36;18.90;99.90
39621;DHT22;25309;48.686;9.170;2022-07-22T05:13:04;18.90;99.90
39621;DHT22;25309;48.686;9.170;2022-07-22T05:15:34;19.00;99.90
39621;DHT22;25309;48.686;9.170;2022-07-22T05:18:01;19.00;99.90
39621;DHT22;25309;48.686;9.170;2022-07-22T05:20:31;19.10;99.90
39621;DHT22;25309;48.686;9.170;2022-07-22T05:22:58;19.10;99.90
39621;DHT22;25309;48.686;9.170;2022-07-22T05:25:29;19.20;99.90
39621;DHT22;25309;48.686;9.170;2022-07-22T05:27:56;19.20;99.90
39621;DHT22;25309;48.686;9.170;2022-07-22T05:30:28;19.20;99.90
39621;DHT22;25309;48.686;9.170;2022-07-22T05:32:59;19.30;99.90
39621;DHT22;25309;48.686;9.170;2022-07-22T05:35:46;19.30;99.90
39621;DHT22;25309;48.686;9.170;2022-07-22T05:38:13;19.40;99.90
39621;DHT22;25309;48.686;9.170;2022-07-22T05:40:40;19.40;99.90
39621;DHT22;25309;48.686;9.170;2022-07-22T05:43:07;19.50;99.90
39621;DHT22;25309;48.686;9.170;2022-07-22T05:45:34;19.50;99.90
39621;DHT22;25309;48.686;9.170;2022-07-22T05:48:03;19.60;99.90
39621;DHT22;25309;48.686;9.170;2022-07-22T05:50:32;19.60;99.90
39621;DHT22;25309;48.686;9.170;2022-07-22T05:52:59;19.70;99.90
39621;DHT22;25309;48.686;9.170;2022-07-22T05:55:26;19.70;99.90
39621;DHT22;25309;48.686;9.170;2022-07-22T05:57:53;19.80;99.90
39621;DHT22;25309;48.686;9.170;2022-07-22T06:00:20;19.80;99.90
39621;DHT22;25309;48.686;9.170;2022-07-22T06:02:47;19.80;99.90
39621;DHT22;25309;48.686;9.170;2022-07-22T06:05:20;19.80;99.90
39621;DHT22;25309;48.686;9.170;2022-07-22T06:08:04;19.90;99.90
39621;DHT22;25309;48.686;9.170;2022-07-22T06:10:43;19.90;99.90
39621;DHT22;25309;48.686;9.170;2022-07-22T06:13:10;20.00;99.90
39621;DHT22;25309;48.686;9.170;2022-07-22T06:15:40;19.90;99.90
39621;DHT22;25309;48.686;9.170;2022-07-22T06:18:07;20.00;99.90
39621;DHT22;25309;48.686;9.170;2022-07-22T06:20:36;20.00;99.90
39621;DHT22;25309;48.686;9.170;2022-07-22T06:23:03;20.10;99.90
39621;DHT22;25309;48.686;9.170;2022-07-22T06:25:32;20.00;99.90
39621;DHT22;25309;48.686;9.170;2022-07-22T06:28:23;20.00;99.90
39621;DHT22;25309;48.686;9.170;2022-07-22T06:30:50;20.10;99.90
39621;DHT22;25309;48.686;9.170;2022-07-22T06:33:18;20.20;99.90
39621;DHT22;25309;48.686;9.170;2022-07-22T06:35:46;20.20;99.90
39621;DHT22;25309;48.686;9.170;2022-07-22T06:38:13;20.30;99.90
39621;DHT22;25309;48.686;9.170;2022-07-22T06:41:16;20.40;99.90
39621;DHT22;25309;48.686;9.170;2022-07-22T06:44:01;20.50;99.90
39621;DHT22;25309;48.686;9.170;2022-07-22T06:46:34;20.50;99.90
39621;DHT22;25309;48.686;9.170;2022-07-22T06:49:04;20.60;99.90
39621;DHT22;25309;48.686;9.170;2022-07-22T06:51:36;20.70;99.90
39621;DHT22;25309;48.686;9.170;2022-07-22T06:54:03;20.70;99.90
39621;DHT22;25309;48.686;9.170;2022-07-22T06:56:30;20.80;99.90
39621;DHT22;25309;48.686;9.170;2022-07-22T06:58:57;20.90;99.90
39621;DHT22;25309;48.686;9.170;2022-07-22T07:01:25;21.00;99.90
39621;DHT22;25309;48.686;9.170;2022-07-22T07:03:54;21.00;99.90
39621;DHT22;25309;48.686;9.170;2022-07-22T07:06:21;21.10;99.90
39621;DHT22;25309;48.686;9.170;2022-07-22T07:09:19;21.20;99.90
39621;DHT22;25309;48.686;9.170;2022-07-22T07:12:00;21.30;99.90
39621;DHT22;25309;48.686;9.170;2022-07-22T07:14:45;21.30;99.90
39621;DHT22;25309;48.686;9.170;2022-07-22T07:17:33;21.40;99.90
39621;DHT22;25309;48.686;9.170;2022-07-22T07:20:04;21.50;99.90
39621;DHT22;25309;48.686;9.170;2022-07-22T07:22:33;21.60;99.90
39621;DHT22;25309;48.686;9.170;2022-07-22T07:25:03;21.60;99.90
39621;DHT22;25309;48.686;9.170;2022-07-22T07:27:51;21.70;99.90
39621;DHT22;25309;48.686;9.170;2022-07-22T07:30:21;21.70;99.90
39621;DHT22;25309;48.686;9.170;2022-07-22T07:32:48;21.70;99.90
39621;DHT22;25309;48.686;9.170;2022-07-22T07:35:15;21.70;99.90
39621;DHT22;25309;48.686;9.170;2022-07-22T07:37:42;21.70;99.90
39621;DHT22;25309;48.686;9.170;2022-07-22T07:40:11;21.70;99.90
39621;DHT22;25309;48.686;9.170;2022-07-22T07:42:38;21.80;99.90
39621;DHT22;25309;48.686;9.170;2022-07-22T07:45:14;21.80;99.90
39621;DHT22;25309;48.686;9.170;2022-07-22T07:47:41;21.80;99.90
39621;DHT22;25309;48.686;9.170;2022-07-22T07:50:12;21.90;99.90
39621;DHT22;25309;48.686;9.170;2022-07-22T07:52:40;22.00;99.90
39621;DHT22;25309;48.686;9.170;2022-07-22T07:55:12;22.10;99.90
39621;DHT22;25309;48.686;9.170;2022-07-22T07:57:43;22.30;99.90
39621;DHT22;25309;48.686;9.170;2022-07-22T08:00:14;22.40;99.90
39621;DHT22;25309;48.686;9.170;2022-07-22T08:02:44;22.50;99.90
39621;DHT22;25309;48.686;9.170;2022-07-22T08:05:12;22.70;99.90
39621;DHT22;25309;48.686;9.170;2022-07-22T08:07:41;22.80;99.90
39621;DHT22;25309;48.686;9.170;2022-07-22T08:10:09;23.00;99.90
39621;DHT22;25309;48.686;9.170;2022-07-22T08:13:04;23.10;99.90
39621;DHT22;25309;48.686;9.170;2022-07-22T08:15:57;23.20;99.90
39621;DHT22;25309;48.686;9.170;2022-07-22T08:18:27;23.20;99.90
39621;DHT22;25309;48.686;9.170;2022-07-22T08:20:54;23.20;99.90
39621;DHT22;25309;48.686;9.170;2022-07-22T08:23:48;23.30;99.90
39621;DHT22;25309;48.686;9.170;2022-07-22T08:26:15;23.40;99.90
39621;DHT22;25309;48.686;9.170;2022-07-22T08:28:43;23.50;99.90
39621;DHT22;25309;48.686;9.170;2022-07-22T08:31:10;23.70;99.90
39621;DHT22;25309;48.686;9.170;2022-07-22T08:33:38;23.70;99.90
39621;DHT22;25309;48.686;9.170;2022-07-22T08:36:06;23.90;99.90
39621;DHT22;25309;48.686;9.170;2022-07-22T08:38:34;24.00;99.90
39621;DHT22;25309;48.686;9.170;2022-07-22T08:41:03;24.10;99.90
39621;DHT22;25309;48.686;9.170;2022-07-22T08:43:35;24.30;99.90
39621;DHT22;25309;48.686;9.170;2022-07-22T08:46:03;24.50;99.90
39621;DHT22;25309;48.686;9.170;2022-07-22T08:48:44;24.60;99.90
39621;DHT22;25309;48.686;9.170;2022-07-22T08:51:31;24.80;99.90
39621;DHT22;25309;48.686;9.170;2022-07-22T08:54:16;24.90;99.90
39621;DHT22;25309;48.686;9.170;2022-07-22T08:56:46;24.80;99.90
39621;DHT22;25309;48.686;9.170;2022-07-22T08:59:13;24.80;99.90
39621;DHT22;25309;48.686;9.170;2022-07-22T09:02:01;24.90;99.90
39621;DHT22;25309;48.686;9.170;2022-07-22T09:04:29;24.90;99.90
39621;DHT22;25309;48.686;9.170;2022-07-22T09:06:56;25.00;99.90
39621;DHT22;25309;48.686;9.170;2022-07-22T09:09:30;25.20;99.90
39621;DHT22;25309;48.686;9.170;2022-07-22T09:12:04;25.40;99.90
39621;DHT22;25309;48.686;9.170;2022-07-22T09:14:53;25.60;99.90
39621;DHT22;25309;48.686;9.170;2022-07-22T09:17:44;25.80;99.90
39621;DHT22;25309;48.686;9.170;2022-07-22T09:20:31;26.00;99.90
39621;DHT22;25309;48.686;9.170;2022-07-22T09:23:19;26.20;99.90
39621;DHT22;25309;48.686;9.170;2022-07-22T09:25:53;26.20;99.90
39621;DHT22;25309;48.686;9.170;2022-07-22T09:28:37;26.20;99.90
39621;DHT22;25309;48.686;9.170;2022-07-22T09:31:29;26.40;99.90
39621;DHT22;25309;48.686;9.170;2022-07-22T09:34:26;26.50;99.90
39621;DHT22;25309;48.686;9.170;2022-07-22T09:36:54;26.70;99.90
39621;DHT22;25309;48.686;9.170;2022-07-22T09:39:25;26.70;99.90
39621;DHT22;25309;48.686;9.170;2022-07-22T09:42:00;26.80;99.80
39621;DHT22;25309;48.686;9.170;2022-07-22T09:44:28;26.90;98.50
39621;DHT22;25309;48.686;9.170;2022-07-22T09:46:58;26.90;99.20
39621;DHT22;25309;48.686;9.170;2022-07-22T09:49:44;27.10;99.20
39621;DHT22;25309;48.686;9.170;2022-07-22T09:52:30;27.30;98.60
39621;DHT22;25309;48.686;9.170;2022-07-22T09:55:02;27.40;97.80
39621;DHT22;25309;48.686;9.170;2022-07-22T09:57:37;27.50;98.20
39621;DHT22;25309;48.686;9.170;2022-07-22T10:00:05;27.60;97.50
39621;DHT22;25309;48.686;9.170;2022-07-22T10:02:46;27.60;98.00
39621;DHT22;25309;48.686;9.170;2022-07-22T10:05:17;27.70;97.60
39621;DHT22;25309;48.686;9.170;2022-07-22T10:07:46;27.80;97.20
39621;DHT22;25309;48.686;9.170;2022-07-22T10:10:14;28.00;96.70
39621;DHT22;25309;48.686;9.170;2022-07-22T10:12:42;28.10;96.80
39621;DHT22;25309;48.686;9.170;2022-07-22T10:15:11;28.20;96.70
39621;DHT22;25309;48.686;9.170;2022-07-22T10:17:40;28.40;96.00
39621;DHT22;25309;48.686;9.170;2022-07-22T10:20:09;28.60;96.30
39621;DHT22;25309;48.686;9.170;2022-07-22T10:22:55;28.60;95.60
39621;DHT22;25309;48.686;9.170;2022-07-22T10:25:30;28.50;94.90
39621;DHT22;25309;48.686;9.170;2022-07-22T10:27:59;28.60;94.80
39621;DHT22;25309;48.686;9.170;2022-07-22T10:30:28;28.60;95.40
39621;DHT22;25309;48.686;9.170;2022-07-22T10:33:06;28.80;95.00
39621;DHT22;25309;48.686;9.170;2022-07-22T10:35:35;28.90;94.40
39621;DHT22;25309;48.686;9.170;2022-07-22T10:38:07;29.00;94.10
39621;DHT22;25309;48.686;9.170;2022-07-22T10:40:50;29.10;94.20
39621;DHT22;25309;48.686;9.170;2022-07-22T10:43:18;29.30;93.90
39621;DHT22;25309;48.686;9.170;2022-07-22T10:45:48;29.40;92.80
39621;DHT22;25309;48.686;9.170;2022-07-22T10:48:19;29.40;91.80
39621;DHT22;25309;48.686;9.170;2022-07-22T10:50:51;29.40;92.40
39621;DHT22;25309;48.686;9.170;2022-07-22T10:53:24;29.40;92.20
39621;DHT22;25309;48.686;9.170;2022-07-22T10:56:00;29.50;92.70
39621;DHT22;25309;48.686;9.170;2022-07-22T10:58:48;29.60;91.70
39621;DHT22;25309;48.686;9.170;2022-07-22T11:01:16;29.60;91.70
39621;DHT22;25309;48.686;9.170;2022-07-22T11:03:45;29.70;92.00
39621;DHT22;25309;48.686;9.170;2022-07-22T11:06:17;29.80;92.40
39621;DHT22;25309;48.686;9.170;2022-07-22T11:08:48;30.00;92.30
39621;DHT22;25309;48.686;9.170;2022-07-22T11:11:16;30.20;91.50
39621;DHT22;25309;48.686;9.170;2022-07-22T11:13:44;30.40;91.90
39621;DHT22;25309;48.686;9.170;2022-07-22T11:16:20;30.60;90.80
39621;DHT22;25309;48.686;9.170;2022-07-22T11:18:49;30.70;90.10
39621;DHT22;25309;48.686;9.170;2022-07-22T11:21:19;30.70;90.10
39621;DHT22;25309;48.686;9.170;2022-07-22T11:23:49;30.70;89.30
39621;DHT22;25309;48.686;9.170;2022-07-22T11:26:19;30.70;89.90
39621;DHT22;25309;48.686;9.170;2022-07-22T11:28:46;30.90;89.60
39621;DHT22;25309;48.686;9.170;2022-07-22T11:31:15;31.00;87.50
39621;DHT22;25309;48.686;9.170;2022-07-22T11:33:43;30.90;86.40
39621;DHT22;25309;48.686;9.170;2022-07-22T11:36:11;30.90;87.00
39621;DHT22;25309;48.686;9.170;2022-07-22T11:38:46;30.90;86.40
39621;DHT22;25309;48.686;9.170;2022-07-22T11:41:20;31.00;86.50
39621;DHT22;25309;48.686;9.170;2022-07-22T11:43:48;30.90;86.60
39621;DHT22;25309;48.686;9.170;2022-07-22T11:46:17;30.90;84.60
39621;DHT22;25309;48.686;9.170;2022-07-22T11:48:44;30.70;85.30
39621;DHT22;25309;48.686;9.170;2022-07-22T11:51:12;30.70;84.40
39621;DHT22;25309;48.686;9.170;2022-07-22T11:53:47;30.80;86.20
39621;DHT22;25309;48.686;9.170;2022-07-22T11:56:14;30.90;85.00
39621;DHT22;25309;48.686;9.170;2022-07-22T11:58:44;31.00;85.20
39621;DHT22;25309;48.686;9.170;2022-07-22T12:01:13;31.10;84.50
39621;DHT22;25309;48.686;9.170;2022-07-22T12:03:45;31.10;84.10
39621;DHT22;25309;48.686;9.170;2022-07-22T12:06:14;31.10;84.20
39621;DHT22;25309;48.686;9.170;2022-07-22T12:08:43;31.20;85.00
39621;DHT22;25309;48.686;9.170;2022-07-22T12:11:12;31.40;82.40
39621;DHT22;25309;48.686;9.170;2022-07-22T12:13:43;31.60;83.50
39621;DHT22;25309;48.686;9.170;2022-07-22T12:16:24;31.70;84.10
39621;DHT22;25309;48.686;9.170;2022-07-22T12:18:53;31.90;84.50
39621;DHT22;25309;48.686;9.170;2022-07-22T12:21:21;32.00;82.40
39621;DHT22;25309;48.686;9.170;2022-07-22T12:23:52;32.00;81.40
39621;DHT22;25309;48.686;9.170;2022-07-22T12:26:36;32.00;80.30
39621;DHT22;25309;48.686;9.170;2022-07-22T12:29:19;31.90;80.30
39621;DHT22;25309;48.686;9.170;2022-07-22T12:31:49;31.90;80.60
39621;DHT22;25309;48.686;9.170;2022-07-22T12:34:16;31.90;78.80
39621;DHT22;25309;48.686;9.170;2022-07-22T12:36:45;31.90;80.80
39621;DHT22;25309;48.686;9.170;2022-07-22T12:39:14;31.90;81.60
39621;DHT22;25309;48.686;9.170;2022-07-22T12:41:46;32.00;79.30
39621;DHT22;25309;48.686;9.170;2022-07-22T12:44:19;32.00;79.20
39621;DHT22;25309;48.686;9.170;2022-07-22T12:46:48;32.10;79.70
39621;DHT22;25309;48.686;9.170;2022-07-22T12:49:17;32.00;78.90
39621;DHT22;25309;48.686;9.170;2022-07-22T12:52:10;32.00;78.60
39621;DHT22;25309;48.686;9.170;2022-07-22T12:54:38;32.10;80.10
39621;DHT22;25309;48.686;9.170;2022-07-22T12:57:07;32.10;80.50
39621;DHT22;25309;48.686;9.170;2022-07-22T12:59:36;32.30;79.80
39621;DHT22;25309;48.686;9.170;2022-07-22T13:02:03;32.30;78.30
39621;DHT22;25309;48.686;9.170;2022-07-22T13:04:31;32.30;77.70
39621;DHT22;25309;48.686;9.170;2022-07-22T13:06:58;32.30;77.70
39621;DHT22;25309;48.686;9.170;2022-07-22T13:09:25;32.40;77.20
39621;DHT22;25309;48.686;9.170;2022-07-22T13:11:52;32.40;77.50
39621;DHT22;25309;48.686;9.170;2022-07-22T13:14:19;32.40;77.20
39621;DHT22;25309;48.686;9.170;2022-07-22T13:16:47;32.40;76.60
39621;DHT22;25309;48.686;9.170;2022-07-22T13:19:14;32.40;76.90
39621;DHT22;25309;48.686;9.170;2022-07-22T13:21:41;32.40;75.60
39621;DHT22;25309;48.686;9.170;2022-07-22T13:24:10;32.50;75.60
39621;DHT22;25309;48.686;9.170;2022-07-22T13:26:38;32.50;76.70
39621;DHT22;25309;48.686;9.170;2022-07-22T13:29:06;32.60;76.20
39621;DHT22;25309;48.686;9.170;2022-07-22T13:31:33;32.60;75.80
39621;DHT22;25309;48.686;9.170;2022-07-22T13:34:01;32.60;74.40
39621;DHT22;25309;48.686;9.170;2022-07-22T13:36:28;32.60;74.00
39621;DHT22;25309;48.686;9.170;2022-07-22T13:38:59;32.60;73.70
39621;DHT22;25309;48.686;9.170;2022-07-22T13:41:26;32.60;75.50
39621;DHT22;25309;48.686;9.170;2022-07-22T13:43:53;32.60;75.20
39621;DHT22;25309;48.686;9.170;2022-07-22T13:46:21;32.60;75.90
39621;DHT22;25309;48.686;9.170;2022-07-22T13:48:48;32.70;76.90
39621;DHT22;25309;48.686;9.170;2022-07-22T13:51:17;32.80;76.40
39621;DHT22;25309;48.686;9.170;2022-07-22T13:53:44;33.00;74.90
39621;DHT22;25309;48.686;9.170;2022-07-22T13:56:11;33.20;75.30
39621;DHT22;25309;48.686;9.170;2022-07-22T13:58:38;33.20;74.80
39621;DHT22;25309;48.686;9.170;2022-07-22T14:01:07;33.30;73.00
39621;DHT22;25309;48.686;9.170;2022-07-22T14:03:35;33.30;71.40
39621;DHT22;25309;48.686;9.170;2022-07-22T14:06:02;33.20;72.90
39621;DHT22;25309;48.686;9.170;2022-07-22T14:08:31;33.20;71.70
39621;DHT22;25309;48.686;9.170;2022-07-22T14:10:58;33.30;71.00
39621;DHT22;25309;48.686;9.170;2022-07-22T14:13:25;33.20;71.80
39621;DHT22;25309;48.686;9.170;2022-07-22T14:15:52;33.30;71.90
39621;DHT22;25309;48.686;9.170;2022-07-22T14:18:19;33.40;72.90
39621;DHT22;25309;48.686;9.170;2022-07-22T14:20:46;33.50;72.10
39621;DHT22;25309;48.686;9.170;2022-07-22T14:23:13;33.60;72.40
39621;DHT22;25309;48.686;9.170;2022-07-22T14:25:44;33.60;72.30
39621;DHT22;25309;48.686;9.170;2022-07-22T14:28:11;33.80;72.10
39621;DHT22;25309;48.686;9.170;2022-07-22T14:30:58;34.00;68.60
39621;DHT22;25309;48.686;9.170;2022-07-22T14:33:25;34.20;68.70
39621;DHT22;25309;48.686;9.170;2022-07-22T14:35:52;34.30;67.70
39621;DHT22;25309;48.686;9.170;2022-07-22T14:38:19;34.30;68.50
39621;DHT22;25309;48.686;9.170;2022-07-22T14:40:47;34.50;67.90
39621;DHT22;25309;48.686;9.170;2022-07-22T14:43:14;34.70;67.50
39621;DHT22;25309;48.686;9.170;2022-07-22T14:45:59;34.80;68.00
39621;DHT22;25309;48.686;9.170;2022-07-22T14:48:27;35.10;67.50
39621;DHT22;25309;48.686;9.170;2022-07-22T14:50:54;35.20;65.90
39621;DHT22;25309;48.686;9.170;2022-07-22T14:53:21;35.20;65.30
39621;DHT22;25309;48.686;9.170;2022-07-22T14:55:50;35.20;65.90
39621;DHT22;25309;48.686;9.170;2022-07-22T14:58:17;35.20;64.30
39621;DHT22;25309;48.686;9.170;2022-07-22T15:00:45;35.20;65.00
39621;DHT22;25309;48.686;9.170;2022-07-22T15:03:12;35.30;66.50
39621;DHT22;25309;48.686;9.170;2022-07-22T15:05:40;35.30;65.20
39621;DHT22;25309;48.686;9.170;2022-07-22T15:08:08;35.40;65.50
39621;DHT22;25309;48.686;9.170;2022-07-22T15:10:35;35.30;63.10
39621;DHT22;25309;48.686;9.170;2022-07-22T15:13:04;35.20;65.50
39621;DHT22;25309;48.686;9.170;2022-07-22T15:15:31;35.10;65.60
39621;DHT22;25309;48.686;9.170;2022-07-22T15:17:58;35.10;64.90
39621;DHT22;25309;48.686;9.170;2022-07-22T15:20:25;35.00;65.90
39621;DHT22;25309;48.686;9.170;2022-07-22T15:22:52;34.90;64.90
39621;DHT22;25309;48.686;9.170;2022-07-22T15:25:20;34.80;65.60
39621;DHT22;25309;48.686;9.170;2022-07-22T15:27:49;34.70;66.00
39621;DHT22;25309;48.686;9.170;2022-07-22T15:30:37;34.70;68.00
39621;DHT22;25309;48.686;9.170;2022-07-22T15:33:05;34.60;66.10
39621;DHT22;25309;48.686;9.170;2022-07-22T15:35:32;34.50;65.20
39621;DHT22;25309;48.686;9.170;2022-07-22T15:37:59;34.30;65.20
39621;DHT22;25309;48.686;9.170;2022-07-22T15:40:26;34.20;65.40
39621;DHT22;25309;48.686;9.170;2022-07-22T15:42:53;34.10;65.10
39621;DHT22;25309;48.686;9.170;2022-07-22T15:45:20;33.90;65.80
39621;DHT22;25309;48.686;9.170;2022-07-22T15:47:59;33.70;64.90
39621;DHT22;25309;48.686;9.170;2022-07-22T15:50:27;33.60;66.50